createdAt,value
2019-05-20T00:05:01.021Z,0.80
2019-05-20T00:10:08.530Z,0.70
2019-05-20T00:15:14.420Z,0.62
2019-05-20T00:20:21.320Z,0.80
2019-05-20T00:25:27.090Z,0.88
2019-05-20T00:30:33.607Z,0.80
2019-05-20T00:35:41.700Z,0.80
2019-05-20T00:40:47.695Z,0.62
2019-05-20T00:45:54.420Z,0.93
2019-05-20T00:51:01.552Z,0.72
2019-05-20T00:56:07.250Z,0.93
2019-05-20T01:01:12.880Z,0.60
2019-05-20T01:06:18.620Z,0.80
2019-05-20T01:11:24.379Z,0.60
2019-05-20T01:16:30.090Z,0.70
2019-05-20T01:21:35.940Z,0.80
2019-05-20T01:26:41.622Z,0.68
2019-05-20T01:31:48.640Z,0.70
2019-05-20T01:36:58.170Z,0.70
2019-05-20T01:42:05.191Z,0.80
2019-05-20T01:47:15.141Z,0.90
2019-05-20T01:52:23.450Z,0.60
2019-05-20T01:57:29.069Z,0.60
2019-05-20T02:02:35.222Z,0.72
2019-05-20T02:07:41.851Z,0.93
2019-05-20T02:12:48.490Z,0.50
2019-05-20T02:17:55.179Z,0.60
2019-05-20T02:23:17.940Z,0.57
2019-05-20T02:28:23.910Z,0.75
2019-05-20T02:33:49.304Z,0.53
2019-05-20T02:38:38.711Z,0.68
2019-05-20T02:43:46.340Z,0.75
2019-05-20T02:48:53.003Z,0.60
2019-05-20T02:54:00.421Z,0.60
2019-05-20T02:59:08.467Z,0.70
2019-05-20T03:04:14.161Z,0.53
2019-05-20T03:09:19.891Z,0.90
2019-05-20T03:14:25.741Z,0.42
2019-05-20T03:19:33.099Z,0.70
2019-05-20T03:24:40.010Z,0.60
2019-05-20T03:29:48.704Z,0.60
2019-05-20T03:34:59.682Z,0.60
2019-05-20T03:40:02.760Z,0.70
2019-05-20T03:45:10.922Z,0.72
2019-05-20T03:50:16.752Z,0.75
2019-05-20T03:55:22.757Z,0.50
2019-05-20T04:00:48.016Z,0.72
2019-05-20T04:05:55.400Z,0.68
2019-05-20T04:11:03.043Z,0.53
2019-05-20T04:16:09.001Z,0.60
2019-05-20T04:21:15.370Z,0.50
2019-05-20T04:26:22.429Z,0.53
2019-05-20T04:31:29.170Z,0.62
2019-05-20T04:36:35.823Z,0.55
2019-05-20T04:41:41.599Z,0.53
2019-05-20T04:46:48.395Z,0.62
2019-05-20T04:51:56.532Z,0.60
2019-05-20T04:57:02.152Z,0.57
2019-05-20T05:02:08.440Z,0.60
2019-05-20T05:07:15.531Z,0.50
2019-05-20T05:12:21.720Z,0.50
2019-05-20T05:17:28.621Z,0.50
2019-05-20T05:22:35.260Z,0.60
2019-05-20T05:27:41.010Z,0.50
2019-05-20T05:32:47.352Z,0.60
2019-05-20T05:37:54.491Z,0.60
2019-05-20T05:43:01.002Z,0.60
2019-05-20T05:48:07.953Z,0.55
2019-05-20T05:53:13.913Z,0.62
2019-05-20T05:58:20.420Z,0.60
2019-05-20T06:03:26.271Z,0.50
2019-05-20T06:08:32.701Z,0.65
2019-05-20T06:13:38.571Z,0.60
2019-05-20T06:18:44.783Z,2.15
2019-05-20T06:23:50.919Z,3.50
2019-05-20T06:28:56.866Z,3.12
2019-05-20T06:34:04.816Z,3.20
2019-05-20T06:39:15.590Z,2.85
2019-05-20T06:44:28.481Z,2.70
2019-05-20T06:49:35.106Z,2.15
2019-05-20T06:54:41.670Z,2.05
2019-05-20T06:59:47.610Z,2.05
2019-05-20T07:04:55.391Z,1.70
2019-05-20T07:10:01.393Z,1.75
2019-05-20T07:15:08.520Z,1.67
2019-05-20T07:20:14.196Z,1.52
2019-05-20T07:25:19.969Z,1.47
2019-05-20T07:30:25.810Z,1.52
2019-05-20T07:35:32.482Z,1.20
2019-05-20T07:40:38.851Z,1.30
2019-05-20T07:45:45.493Z,1.07
2019-05-20T07:50:51.753Z,1.55
2019-05-20T07:56:17.581Z,1.50
2019-05-20T08:01:23.323Z,1.15
2019-05-20T08:06:28.979Z,1.22
2019-05-20T08:11:36.892Z,1.12
2019-05-20T08:16:43.709Z,1.25
2019-05-20T08:21:49.812Z,1.57
2019-05-20T08:26:56.040Z,1.20
2019-05-20T08:32:03.150Z,1.40
2019-05-20T08:37:11.263Z,1.42
2019-05-20T08:42:17.370Z,1.70
2019-05-20T08:47:23.934Z,2.00
2019-05-20T08:52:32.348Z,2.00
2019-05-20T08:57:37.853Z,1.77
2019-05-20T09:02:44.406Z,2.00
2019-05-20T09:08:03.040Z,1.90
2019-05-20T09:13:04.331Z,2.37
2019-05-20T09:18:10.367Z,3.02
2019-05-20T09:23:16.917Z,2.60
2019-05-20T09:28:23.158Z,1.92
2019-05-20T09:33:29.442Z,2.00
2019-05-20T09:38:37.103Z,1.52
2019-05-20T09:43:43.680Z,1.90
2019-05-20T09:48:50.279Z,2.20
2019-05-20T09:53:57.161Z,3.08
2019-05-20T09:59:03.540Z,3.67
2019-05-20T10:04:11.261Z,3.42
2019-05-20T10:09:18.120Z,2.80
2019-05-20T10:14:23.843Z,2.90
2019-05-20T10:19:30.280Z,3.25
2019-05-20T10:24:36.160Z,2.95
2019-05-20T10:29:41.946Z,3.15
2019-05-20T10:34:48.857Z,3.37
2019-05-20T10:39:55.601Z,3.15
2019-05-20T10:45:01.478Z,2.92
2019-05-20T10:50:09.210Z,1.92
2019-05-20T10:55:16.272Z,1.75
2019-05-20T11:00:23.107Z,1.62
2019-05-20T11:05:29.784Z,1.75
2019-05-20T11:10:35.661Z,1.87
2019-05-20T11:15:42.511Z,1.72
2019-05-20T11:20:50.990Z,2.00
2019-05-20T11:25:58.234Z,1.60
2019-05-20T11:31:05.216Z,1.50
2019-05-20T11:36:11.569Z,1.47
2019-05-20T11:41:18.755Z,1.82
2019-05-20T11:46:24.312Z,1.57
2019-05-20T11:51:30.131Z,1.50
2019-05-20T11:56:36.557Z,1.98
2019-05-20T12:01:43.232Z,1.95
2019-05-20T12:06:49.390Z,1.87
2019-05-20T12:11:55.573Z,1.75
2019-05-20T12:17:02.201Z,1.90
2019-05-20T12:22:07.953Z,1.75
2019-05-20T12:27:14.550Z,2.00
2019-05-20T12:32:20.330Z,1.70
2019-05-20T12:37:27.118Z,1.57
2019-05-20T12:42:33.451Z,2.12
2019-05-20T12:47:39.975Z,1.35
2019-05-20T12:52:45.951Z,1.42
2019-05-20T12:57:51.741Z,1.52
2019-05-20T13:02:59.034Z,1.55
2019-05-20T13:08:05.553Z,1.40
2019-05-20T13:13:11.611Z,1.22
2019-05-20T13:18:18.130Z,1.32
2019-05-20T13:23:26.051Z,1.32
2019-05-20T13:28:31.872Z,1.72
2019-05-20T13:33:37.942Z,1.30
2019-05-20T13:38:45.084Z,1.50
2019-05-20T13:43:51.783Z,1.40
2019-05-20T13:48:57.803Z,1.75
2019-05-20T13:54:04.520Z,1.42
2019-05-20T13:59:10.346Z,1.00
2019-05-20T14:04:17.579Z,1.00
2019-05-20T14:09:23.330Z,1.05
2019-05-20T14:14:29.310Z,1.10
2019-05-20T14:19:35.570Z,1.75
2019-05-20T14:24:42.272Z,1.20
2019-05-20T14:29:48.013Z,1.40
2019-05-20T14:34:53.708Z,1.05
2019-05-20T14:39:59.502Z,1.40
2019-05-20T14:45:06.250Z,1.20
2019-05-20T14:50:12.898Z,1.00
2019-05-20T14:55:18.629Z,1.35
2019-05-20T15:00:24.358Z,1.45
2019-05-20T15:05:31.264Z,5.25
2019-05-20T15:10:37.570Z,2.55
2019-05-20T15:15:43.940Z,1.90
2019-05-20T15:20:49.902Z,1.57
2019-05-20T15:25:56.345Z,1.47
2019-05-20T15:31:03.137Z,1.90
2019-05-20T15:36:09.164Z,1.72
2019-05-20T15:41:15.471Z,1.20
2019-05-20T15:46:22.205Z,1.42
2019-05-20T15:51:28.489Z,1.20
2019-05-20T15:56:35.457Z,1.37
2019-05-20T16:01:41.570Z,1.82
2019-05-20T16:06:47.972Z,1.17
2019-05-20T16:11:53.782Z,7.03
2019-05-20T16:17:01.080Z,38.65
2019-05-20T16:22:06.703Z,43.25
2019-05-20T16:27:13.290Z,42.33
2019-05-20T16:32:19.701Z,46.53
2019-05-20T16:37:27.301Z,43.38
2019-05-20T16:42:33.661Z,41.98
2019-05-20T16:47:39.532Z,38.20
2019-05-20T16:52:45.310Z,37.05
2019-05-20T16:57:51.207Z,35.45
2019-05-20T17:02:57.975Z,34.73
2019-05-20T17:08:04.522Z,31.35
2019-05-20T17:13:11.534Z,29.35
2019-05-20T17:18:17.530Z,27.27
2019-05-20T17:23:24.854Z,25.43
2019-05-20T17:28:31.211Z,25.77
2019-05-20T17:33:37.420Z,23.42
2019-05-20T17:38:44.131Z,22.70
2019-05-20T17:43:50.060Z,20.72
2019-05-20T17:48:57.097Z,21.20
2019-05-20T17:54:04.160Z,20.43
2019-05-20T17:59:09.940Z,19.57
2019-05-20T18:04:16.183Z,18.30
2019-05-20T18:09:22.662Z,18.65
2019-05-20T18:14:29.652Z,17.00
2019-05-20T18:19:36.362Z,16.25
2019-05-20T18:24:42.699Z,15.75
2019-05-20T18:29:48.774Z,15.58
2019-05-20T18:34:55.781Z,15.38
2019-05-20T18:40:13.552Z,14.70
2019-05-20T18:45:10.810Z,15.13
2019-05-20T18:50:17.130Z,14.07
2019-05-20T18:55:23.650Z,12.75
2019-05-20T19:00:30.041Z,13.83
2019-05-20T19:05:36.070Z,11.85
2019-05-20T19:10:42.573Z,12.65
2019-05-20T19:15:49.412Z,12.68
2019-05-20T19:20:56.081Z,10.88
2019-05-20T19:26:02.066Z,11.25
2019-05-20T19:31:27.120Z,10.25
2019-05-20T19:36:33.400Z,9.80
2019-05-20T19:41:41.070Z,9.35
2019-05-20T19:46:47.602Z,8.63
2019-05-20T19:51:54.130Z,8.95
2019-05-20T19:57:00.124Z,8.55
2019-05-20T20:02:17.013Z,7.97
2019-05-20T20:07:15.490Z,7.65
2019-05-20T20:12:22.391Z,7.40
2019-05-20T20:17:28.911Z,7.30
2019-05-20T20:22:35.515Z,7.20
2019-05-20T20:27:41.312Z,7.53
2019-05-20T20:32:48.891Z,6.58
2019-05-20T20:37:55.282Z,6.85
2019-05-20T20:43:03.454Z,6.70
2019-05-20T20:48:09.801Z,6.65
2019-05-20T20:53:16.276Z,5.90
2019-05-20T20:58:23.390Z,6.20
2019-05-20T21:03:29.100Z,5.50
2019-05-20T21:08:35.360Z,5.50
2019-05-20T21:13:42.151Z,4.83
2019-05-20T21:18:48.631Z,6.03
2019-05-20T21:23:54.537Z,5.67
2019-05-20T21:29:01.831Z,5.75
2019-05-20T21:34:07.830Z,5.03
2019-05-20T21:39:14.659Z,5.22
2019-05-20T21:44:22.068Z,4.95
2019-05-20T21:49:28.520Z,5.12
2019-05-20T21:54:34.964Z,5.40
2019-05-20T21:59:41.162Z,4.55
2019-05-20T22:04:47.551Z,5.20
2019-05-20T22:09:54.371Z,4.42
2019-05-20T22:15:00.262Z,4.83
2019-05-20T22:20:06.942Z,3.90
2019-05-20T22:25:13.901Z,4.00
2019-05-20T22:30:20.582Z,3.72
2019-05-20T22:35:26.600Z,4.72
2019-05-20T22:40:32.862Z,4.22
2019-05-20T22:45:38.686Z,3.37
2019-05-20T22:50:44.334Z,4.33
2019-05-20T22:55:50.430Z,3.65
2019-05-20T23:00:56.120Z,4.05
2019-05-20T23:06:02.499Z,3.42
2019-05-20T23:11:08.708Z,3.45
2019-05-20T23:16:14.810Z,3.92
2019-05-20T23:21:21.101Z,3.37
2019-05-20T23:26:26.551Z,3.00
2019-05-20T23:31:32.449Z,3.72
2019-05-20T23:36:39.065Z,3.55
2019-05-20T23:41:45.550Z,3.10
2019-05-20T23:46:52.673Z,3.25
2019-05-20T23:51:59.020Z,3.00
2019-05-20T23:57:05.479Z,3.02
